sensor_id;sensor_type;location;lat;lon;timestamp;P1;durP1;ratioP1;P2;durP2;ratioP2
25535;SDS011;13431;51.352;6.412;2022-08-05T00:01:29;7.47;;;5.75;;
25535;SDS011;13431;51.352;6.412;2022-08-05T00:04:15;7.15;;;5.35;;
25535;SDS011;13431;51.352;6.412;2022-08-05T00:06:43;6.65;;;5.10;;
25535;SDS011;13431;51.352;6.412;2022-08-05T00:09:13;7.72;;;5.55;;
25535;SDS011;13431;51.352;6.412;2022-08-05T00:11:45;9.23;;;5.53;;
25535;SDS011;13431;51.352;6.412;2022-08-05T00:14:22;7.18;;;5.53;;
25535;SDS011;13431;51.352;6.412;2022-08-05T00:16:55;6.65;;;5.32;;
25535;SDS011;13431;51.352;6.412;2022-08-05T00:19:23;6.30;;;5.68;;
25535;SDS011;13431;51.352;6.412;2022-08-05T00:22:00;10.60;;;6.13;;
25535;SDS011;13431;51.352;6.412;2022-08-05T00:24:28;6.20;;;5.70;;
25535;SDS011;13431;51.352;6.412;2022-08-05T00:26:59;6.93;;;6.22;;
25535;SDS011;13431;51.352;6.412;2022-08-05T00:29:36;7.22;;;6.00;;
25535;SDS011;13431;51.352;6.412;2022-08-05T00:32:04;7.75;;;6.00;;
25535;SDS011;13431;51.352;6.412;2022-08-05T00:34:40;8.60;;;6.43;;
25535;SDS011;13431;51.352;6.412;2022-08-05T00:37:29;10.60;;;8.02;;
25535;SDS011;13431;51.352;6.412;2022-08-05T00:40:17;8.05;;;6.18;;
25535;SDS011;13431;51.352;6.412;2022-08-05T00:43:01;9.23;;;6.47;;
25535;SDS011;13431;51.352;6.412;2022-08-05T00:45:33;8.25;;;6.68;;
25535;SDS011;13431;51.352;6.412;2022-08-05T00:48:13;7.28;;;6.43;;
25535;SDS011;13431;51.352;6.412;2022-08-05T00:50:43;7.05;;;6.35;;
25535;SDS011;13431;51.352;6.412;2022-08-05T00:53:16;7.38;;;6.38;;
25535;SDS011;13431;51.352;6.412;2022-08-05T00:56:05;8.80;;;7.45;;
25535;SDS011;13431;51.352;6.412;2022-08-05T00:58:34;9.02;;;6.55;;
25535;SDS011;13431;51.352;6.412;2022-08-05T01:01:02;8.15;;;7.03;;
25535;SDS011;13431;51.352;6.412;2022-08-05T01:03:35;7.45;;;6.70;;
25535;SDS011;13431;51.352;6.412;2022-08-05T01:06:03;8.75;;;7.15;;
25535;SDS011;13431;51.352;6.412;2022-08-05T01:08:37;10.15;;;8.02;;
25535;SDS011;13431;51.352;6.412;2022-08-05T01:11:15;12.07;;;10.70;;
25535;SDS011;13431;51.352;6.412;2022-08-05T01:14:00;9.18;;;7.93;;
25535;SDS011;13431;51.352;6.412;2022-08-05T01:30:27;8.95;;;7.68;;
25535;SDS011;13431;51.352;6.412;2022-08-05T01:33:04;11.90;;;8.65;;
25535;SDS011;13431;51.352;6.412;2022-08-05T01:35:36;11.15;;;7.70;;
25535;SDS011;13431;51.352;6.412;2022-08-05T01:38:19;7.88;;;7.10;;
25535;SDS011;13431;51.352;6.412;2022-08-05T01:40:54;10.90;;;7.88;;
25535;SDS011;13431;51.352;6.412;2022-08-05T01:43:25;13.20;;;7.97;;
25535;SDS011;13431;51.352;6.412;2022-08-05T01:45:54;8.70;;;7.90;;
25535;SDS011;13431;51.352;6.412;2022-08-05T01:48:26;9.95;;;8.70;;
25535;SDS011;13431;51.352;6.412;2022-08-05T01:50:57;10.32;;;8.07;;
25535;SDS011;13431;51.352;6.412;2022-08-05T01:53:25;9.18;;;8.23;;
25535;SDS011;13431;51.352;6.412;2022-08-05T01:56:14;11.60;;;10.43;;
25535;SDS011;13431;51.352;6.412;2022-08-05T01:59:05;11.18;;;9.27;;
25535;SDS011;13431;51.352;6.412;2022-08-05T02:01:35;10.65;;;8.60;;
25535;SDS011;13431;51.352;6.412;2022-08-05T02:04:07;15.70;;;9.77;;
25535;SDS011;13431;51.352;6.412;2022-08-05T02:06:36;11.15;;;9.43;;
25535;SDS011;13431;51.352;6.412;2022-08-05T02:09:05;9.98;;;8.95;;
25535;SDS011;13431;51.352;6.412;2022-08-05T02:11:41;11.80;;;9.45;;
25535;SDS011;13431;51.352;6.412;2022-08-05T02:14:20;11.27;;;9.70;;
25535;SDS011;13431;51.352;6.412;2022-08-05T02:17:01;10.48;;;9.40;;
25535;SDS011;13431;51.352;6.412;2022-08-05T02:19:43;10.52;;;9.52;;
25535;SDS011;13431;51.352;6.412;2022-08-05T02:22:18;12.05;;;10.82;;
25535;SDS011;13431;51.352;6.412;2022-08-05T02:25:35;14.75;;;10.20;;
25535;SDS011;13431;51.352;6.412;2022-08-05T02:27:47;13.13;;;9.30;;
25535;SDS011;13431;51.352;6.412;2022-08-05T02:30:26;12.27;;;11.07;;
25535;SDS011;13431;51.352;6.412;2022-08-05T02:35:28;11.55;;;10.40;;
25535;SDS011;13431;51.352;6.412;2022-08-05T02:38:04;12.75;;;9.95;;
25535;SDS011;13431;51.352;6.412;2022-08-05T02:40:36;12.30;;;11.25;;
25535;SDS011;13431;51.352;6.412;2022-08-05T02:43:11;12.63;;;11.48;;
25535;SDS011;13431;51.352;6.412;2022-08-05T02:45:42;13.25;;;11.85;;
25535;SDS011;13431;51.352;6.412;2022-08-05T02:48:22;13.57;;;12.20;;
25535;SDS011;13431;51.352;6.412;2022-08-05T02:50:57;14.90;;;11.75;;
25535;SDS011;13431;51.352;6.412;2022-08-05T02:53:29;14.43;;;12.65;;
25535;SDS011;13431;51.352;6.412;2022-08-05T02:56:05;12.88;;;11.40;;
25535;SDS011;13431;51.352;6.412;2022-08-05T02:58:42;15.30;;;12.50;;
25535;SDS011;13431;51.352;6.412;2022-08-05T03:01:18;13.77;;;12.38;;
25535;SDS011;13431;51.352;6.412;2022-08-05T03:04:02;18.52;;;12.88;;
25535;SDS011;13431;51.352;6.412;2022-08-05T03:06:40;14.63;;;12.82;;
25535;SDS011;13431;51.352;6.412;2022-08-05T03:09:24;17.17;;;14.63;;
25535;SDS011;13431;51.352;6.412;2022-08-05T03:12:02;14.45;;;12.63;;
25535;SDS011;13431;51.352;6.412;2022-08-05T03:14:30;15.98;;;14.25;;
25535;SDS011;13431;51.352;6.412;2022-08-05T03:16:58;14.90;;;13.40;;
25535;SDS011;13431;51.352;6.412;2022-08-05T03:19:26;16.73;;;14.15;;
25535;SDS011;13431;51.352;6.412;2022-08-05T03:22:02;14.45;;;12.38;;
25535;SDS011;13431;51.352;6.412;2022-08-05T03:24:42;16.15;;;13.85;;
25535;SDS011;13431;51.352;6.412;2022-08-05T03:27:17;17.15;;;15.38;;
25535;SDS011;13431;51.352;6.412;2022-08-05T03:29:55;16.02;;;14.43;;
25535;SDS011;13431;51.352;6.412;2022-08-05T03:32:34;16.50;;;14.75;;
25535;SDS011;13431;51.352;6.412;2022-08-05T03:35:03;16.30;;;14.18;;
25535;SDS011;13431;51.352;6.412;2022-08-05T03:37:31;16.38;;;14.65;;
25535;SDS011;13431;51.352;6.412;2022-08-05T03:40:11;17.77;;;15.50;;
25535;SDS011;13431;51.352;6.412;2022-08-05T03:42:41;16.52;;;14.45;;
25535;SDS011;13431;51.352;6.412;2022-08-05T03:45:18;16.10;;;14.13;;
25535;SDS011;13431;51.352;6.412;2022-08-05T03:47:49;15.80;;;14.27;;
25535;SDS011;13431;51.352;6.412;2022-08-05T03:50:16;16.35;;;14.55;;
25535;SDS011;13431;51.352;6.412;2022-08-05T03:53:04;16.33;;;14.43;;
25535;SDS011;13431;51.352;6.412;2022-08-05T03:56:16;17.55;;;13.98;;
25535;SDS011;13431;51.352;6.412;2022-08-05T03:59:00;15.35;;;13.77;;
25535;SDS011;13431;51.352;6.412;2022-08-05T04:01:31;15.20;;;13.60;;
25535;SDS011;13431;51.352;6.412;2022-08-05T04:04:05;16.50;;;14.40;;
25535;SDS011;13431;51.352;6.412;2022-08-05T04:06:36;15.85;;;14.00;;
25535;SDS011;13431;51.352;6.412;2022-08-05T04:09:14;17.02;;;14.40;;
25535;SDS011;13431;51.352;6.412;2022-08-05T04:11:51;18.15;;;15.48;;
25535;SDS011;13431;51.352;6.412;2022-08-05T04:14:25;18.90;;;15.30;;
25535;SDS011;13431;51.352;6.412;2022-08-05T04:16:57;18.67;;;14.98;;
25535;SDS011;13431;51.352;6.412;2022-08-05T04:19:28;21.45;;;15.45;;
25535;SDS011;13431;51.352;6.412;2022-08-05T04:21:56;17.15;;;15.15;;
25535;SDS011;13431;51.352;6.412;2022-08-05T04:24:43;17.73;;;16.13;;
25535;SDS011;13431;51.352;6.412;2022-08-05T04:27:18;16.17;;;14.63;;
25535;SDS011;13431;51.352;6.412;2022-08-05T04:30:07;16.45;;;14.63;;
25535;SDS011;13431;51.352;6.412;2022-08-05T04:32:35;18.63;;;16.55;;
25535;SDS011;13431;51.352;6.412;2022-08-05T04:35:03;18.70;;;16.80;;
25535;SDS011;13431;51.352;6.412;2022-08-05T04:37:31;19.10;;;15.95;;
25535;SDS011;13431;51.352;6.412;2022-08-05T04:40:19;20.60;;;15.95;;
25535;SDS011;13431;51.352;6.412;2022-08-05T04:42:47;17.77;;;16.05;;
25535;SDS011;13431;51.352;6.412;2022-08-05T04:45:14;16.73;;;15.23;;
25535;SDS011;13431;51.352;6.412;2022-08-05T04:48:05;18.70;;;16.80;;
25535;SDS011;13431;51.352;6.412;2022-08-05T04:50:48;17.75;;;15.85;;
25535;SDS011;13431;51.352;6.412;2022-08-05T04:53:29;22.65;;;17.30;;
25535;SDS011;13431;51.352;6.412;2022-08-05T04:56:01;18.73;;;16.80;;
25535;SDS011;13431;51.352;6.412;2022-08-05T04:58:49;19.63;;;15.13;;
25535;SDS011;13431;51.352;6.412;2022-08-05T05:01:16;18.27;;;14.82;;
25535;SDS011;13431;51.352;6.412;2022-08-05T05:04:04;16.45;;;14.50;;
25535;SDS011;13431;51.352;6.412;2022-08-05T05:06:33;21.00;;;15.93;;
25535;SDS011;13431;51.352;6.412;2022-08-05T05:09:06;16.80;;;15.02;;
25535;SDS011;13431;51.352;6.412;2022-08-05T05:11:33;15.80;;;14.02;;
25535;SDS011;13431;51.352;6.412;2022-08-05T05:14:19;16.20;;;14.38;;
25535;SDS011;13431;51.352;6.412;2022-08-05T05:17:01;16.13;;;13.32;;
25535;SDS011;13431;51.352;6.412;2022-08-05T05:19:29;15.32;;;13.25;;
25535;SDS011;13431;51.352;6.412;2022-08-05T05:22:03;14.45;;;12.20;;
25535;SDS011;13431;51.352;6.412;2022-08-05T05:24:50;15.18;;;11.35;;
25535;SDS011;13431;51.352;6.412;2022-08-05T05:27:34;19.63;;;11.85;;
25535;SDS011;13431;51.352;6.412;2022-08-05T05:30:15;12.85;;;10.70;;
25535;SDS011;13431;51.352;6.412;2022-08-05T05:32:58;13.35;;;9.13;;
25535;SDS011;13431;51.352;6.412;2022-08-05T05:35:46;13.20;;;9.90;;
25535;SDS011;13431;51.352;6.412;2022-08-05T05:38:14;10.20;;;9.25;;
25535;SDS011;13431;51.352;6.412;2022-08-05T05:40:53;11.90;;;9.40;;
25535;SDS011;13431;51.352;6.412;2022-08-05T05:43:22;11.80;;;9.68;;
25535;SDS011;13431;51.352;6.412;2022-08-05T05:46:10;13.80;;;9.38;;
25535;SDS011;13431;51.352;6.412;2022-08-05T05:48:44;10.20;;;8.57;;
25535;SDS011;13431;51.352;6.412;2022-08-05T05:51:32;14.80;;;8.88;;
25535;SDS011;13431;51.352;6.412;2022-08-05T05:54:16;10.38;;;9.40;;
25535;SDS011;13431;51.352;6.412;2022-08-05T05:56:45;12.73;;;9.20;;
25535;SDS011;13431;51.352;6.412;2022-08-05T05:59:13;13.88;;;9.68;;
25535;SDS011;13431;51.352;6.412;2022-08-05T06:01:40;9.75;;;8.77;;
25535;SDS011;13431;51.352;6.412;2022-08-05T06:04:23;12.68;;;9.20;;
25535;SDS011;13431;51.352;6.412;2022-08-05T06:06:51;10.30;;;8.50;;
25535;SDS011;13431;51.352;6.412;2022-08-05T06:09:18;9.15;;;7.45;;
25535;SDS011;13431;51.352;6.412;2022-08-05T06:12:06;8.43;;;7.13;;
25535;SDS011;13431;51.352;6.412;2022-08-05T06:14:37;9.15;;;7.07;;
25535;SDS011;13431;51.352;6.412;2022-08-05T06:17:06;8.85;;;6.30;;
25535;SDS011;13431;51.352;6.412;2022-08-05T06:19:53;7.43;;;6.35;;
25535;SDS011;13431;51.352;6.412;2022-08-05T06:22:29;9.05;;;5.57;;
25535;SDS011;13431;51.352;6.412;2022-08-05T06:25:00;8.98;;;6.43;;
25535;SDS011;13431;51.352;6.412;2022-08-05T06:27:49;7.53;;;6.10;;
25535;SDS011;13431;51.352;6.412;2022-08-05T06:30:37;8.80;;;6.03;;
25535;SDS011;13431;51.352;6.412;2022-08-05T06:33:04;8.48;;;5.97;;
25535;SDS011;13431;51.352;6.412;2022-08-05T06:35:36;6.65;;;4.55;;
25535;SDS011;13431;51.352;6.412;2022-08-05T06:38:23;6.38;;;5.65;;
25535;SDS011;13431;51.352;6.412;2022-08-05T06:41:03;10.63;;;6.22;;
25535;SDS011;13431;51.352;6.412;2022-08-05T06:43:34;6.43;;;5.60;;
25535;SDS011;13431;51.352;6.412;2022-08-05T06:46:24;8.60;;;5.03;;
25535;SDS011;13431;51.352;6.412;2022-08-05T06:48:56;7.05;;;5.30;;
25535;SDS011;13431;51.352;6.412;2022-08-05T06:51:27;5.70;;;5.20;;
25535;SDS011;13431;51.352;6.412;2022-08-05T06:53:57;10.35;;;6.45;;
25535;SDS011;13431;51.352;6.412;2022-08-05T06:56:28;7.20;;;5.43;;
25535;SDS011;13431;51.352;6.412;2022-08-05T06:59:01;7.78;;;4.97;;
25535;SDS011;13431;51.352;6.412;2022-08-05T07:01:37;6.78;;;5.28;;
25535;SDS011;13431;51.352;6.412;2022-08-05T07:04:08;7.47;;;4.80;;
25535;SDS011;13431;51.352;6.412;2022-08-05T07:06:35;9.65;;;5.38;;
25535;SDS011;13431;51.352;6.412;2022-08-05T07:09:03;7.45;;;5.05;;
25535;SDS011;13431;51.352;6.412;2022-08-05T07:11:34;5.95;;;4.85;;
25535;SDS011;13431;51.352;6.412;2022-08-05T07:14:05;9.93;;;5.10;;
25535;SDS011;13431;51.352;6.412;2022-08-05T07:16:57;6.60;;;5.07;;
25535;SDS011;13431;51.352;6.412;2022-08-05T07:19:48;7.25;;;4.30;;
25535;SDS011;13431;51.352;6.412;2022-08-05T07:22:37;6.07;;;4.30;;
25535;SDS011;13431;51.352;6.412;2022-08-05T07:25:07;6.25;;;4.45;;
25535;SDS011;13431;51.352;6.412;2022-08-05T07:27:55;9.10;;;4.13;;
25535;SDS011;13431;51.352;6.412;2022-08-05T07:30:33;10.18;;;4.95;;
25535;SDS011;13431;51.352;6.412;2022-08-05T07:33:06;7.13;;;4.90;;
25535;SDS011;13431;51.352;6.412;2022-08-05T07:35:43;5.13;;;4.47;;
25535;SDS011;13431;51.352;6.412;2022-08-05T07:38:30;6.72;;;3.92;;
25535;SDS011;13431;51.352;6.412;2022-08-05T07:41:10;5.47;;;4.18;;
25535;SDS011;13431;51.352;6.412;2022-08-05T07:44:04;7.18;;;4.43;;
25535;SDS011;13431;51.352;6.412;2022-08-05T07:46:44;5.40;;;3.88;;
25535;SDS011;13431;51.352;6.412;2022-08-05T07:49:14;6.68;;;4.00;;
25535;SDS011;13431;51.352;6.412;2022-08-05T07:51:44;5.18;;;4.18;;
25535;SDS011;13431;51.352;6.412;2022-08-05T07:54:21;5.13;;;3.92;;
25535;SDS011;13431;51.352;6.412;2022-08-05T07:57:00;6.53;;;4.10;;
25535;SDS011;13431;51.352;6.412;2022-08-05T07:59:48;6.82;;;4.22;;
25535;SDS011;13431;51.352;6.412;2022-08-05T08:02:16;4.93;;;3.63;;
25535;SDS011;13431;51.352;6.412;2022-08-05T08:04:44;6.88;;;3.63;;
25535;SDS011;13431;51.352;6.412;2022-08-05T08:07:15;5.47;;;4.20;;
25535;SDS011;13431;51.352;6.412;2022-08-05T08:09:49;3.88;;;3.28;;
25535;SDS011;13431;51.352;6.412;2022-08-05T08:12:21;5.20;;;3.67;;
25535;SDS011;13431;51.352;6.412;2022-08-05T08:15:03;8.30;;;4.45;;
25535;SDS011;13431;51.352;6.412;2022-08-05T08:17:44;4.45;;;3.60;;
25535;SDS011;13431;51.352;6.412;2022-08-05T08:20:19;6.05;;;3.53;;
25535;SDS011;13431;51.352;6.412;2022-08-05T08:23:08;6.57;;;3.72;;
25535;SDS011;13431;51.352;6.412;2022-08-05T08:25:55;9.57;;;4.70;;
25535;SDS011;13431;51.352;6.412;2022-08-05T08:28:29;4.32;;;3.80;;
25535;SDS011;13431;51.352;6.412;2022-08-05T08:31:16;6.80;;;4.05;;
25535;SDS011;13431;51.352;6.412;2022-08-05T08:33:44;5.43;;;3.78;;
25535;SDS011;13431;51.352;6.412;2022-08-05T08:36:18;5.07;;;3.13;;
25535;SDS011;13431;51.352;6.412;2022-08-05T08:39:06;7.68;;;3.50;;
25535;SDS011;13431;51.352;6.412;2022-08-05T08:41:41;6.72;;;4.03;;
25535;SDS011;13431;51.352;6.412;2022-08-05T08:44:24;5.75;;;3.42;;
25535;SDS011;13431;51.352;6.412;2022-08-05T08:47:18;5.93;;;3.75;;
25535;SDS011;13431;51.352;6.412;2022-08-05T08:50:10;8.05;;;3.40;;
25535;SDS011;13431;51.352;6.412;2022-08-05T08:53:04;4.07;;;3.22;;
25535;SDS011;13431;51.352;6.412;2022-08-05T08:55:38;7.50;;;3.55;;
25535;SDS011;13431;51.352;6.412;2022-08-05T08:58:27;6.50;;;3.42;;
25535;SDS011;13431;51.352;6.412;2022-08-05T09:01:10;4.38;;;2.70;;
25535;SDS011;13431;51.352;6.412;2022-08-05T09:03:42;7.78;;;3.47;;
25535;SDS011;13431;51.352;6.412;2022-08-05T09:06:13;3.20;;;2.88;;
25535;SDS011;13431;51.352;6.412;2022-08-05T09:08:47;5.10;;;3.03;;
25535;SDS011;13431;51.352;6.412;2022-08-05T09:11:14;4.28;;;2.47;;
25535;SDS011;13431;51.352;6.412;2022-08-05T09:13:42;4.80;;;2.72;;
25535;SDS011;13431;51.352;6.412;2022-08-05T09:16:30;2.33;;;2.10;;
25535;SDS011;13431;51.352;6.412;2022-08-05T09:18:57;2.33;;;2.13;;
25535;SDS011;13431;51.352;6.412;2022-08-05T09:21:25;4.75;;;2.33;;
25535;SDS011;13431;51.352;6.412;2022-08-05T09:24:14;4.85;;;2.78;;
25535;SDS011;13431;51.352;6.412;2022-08-05T09:26:45;4.20;;;3.05;;
25535;SDS011;13431;51.352;6.412;2022-08-05T09:29:17;4.28;;;2.75;;
25535;SDS011;13431;51.352;6.412;2022-08-05T09:32:05;3.50;;;2.33;;
25535;SDS011;13431;51.352;6.412;2022-08-05T09:34:54;5.03;;;2.15;;
25535;SDS011;13431;51.352;6.412;2022-08-05T09:37:24;3.55;;;2.38;;
25535;SDS011;13431;51.352;6.412;2022-08-05T09:40:32;3.08;;;2.40;;
25535;SDS011;13431;51.352;6.412;2022-08-05T09:43:00;4.43;;;2.30;;
25535;SDS011;13431;51.352;6.412;2022-08-05T09:45:35;6.87;;;2.63;;
25535;SDS011;13431;51.352;6.412;2022-08-05T09:48:28;5.70;;;2.95;;
25535;SDS011;13431;51.352;6.412;2022-08-05T09:51:01;4.25;;;2.80;;
25535;SDS011;13431;51.352;6.412;2022-08-05T09:53:48;3.17;;;2.35;;
25535;SDS011;13431;51.352;6.412;2022-08-05T09:58:57;5.60;;;2.67;;
25535;SDS011;13431;51.352;6.412;2022-08-05T10:01:30;4.68;;;2.47;;
25535;SDS011;13431;51.352;6.412;2022-08-05T10:04:06;4.05;;;2.50;;
25535;SDS011;13431;51.352;6.412;2022-08-05T10:06:39;3.65;;;2.28;;
25535;SDS011;13431;51.352;6.412;2022-08-05T10:09:24;4.40;;;2.55;;
25535;SDS011;13431;51.352;6.412;2022-08-05T10:11:54;2.80;;;2.60;;
25535;SDS011;13431;51.352;6.412;2022-08-05T10:15:03;3.38;;;2.30;;
25535;SDS011;13431;51.352;6.412;2022-08-05T10:23:18;4.68;;;2.50;;
25535;SDS011;13431;51.352;6.412;2022-08-05T10:26:08;4.10;;;2.75;;
25535;SDS011;13431;51.352;6.412;2022-08-05T10:28:44;4.57;;;2.83;;
25535;SDS011;13431;51.352;6.412;2022-08-05T10:31:13;4.95;;;3.10;;
25535;SDS011;13431;51.352;6.412;2022-08-05T10:34:02;6.90;;;3.53;;
25535;SDS011;13431;51.352;6.412;2022-08-05T10:36:34;6.18;;;2.40;;
25535;SDS011;13431;51.352;6.412;2022-08-05T10:39:04;4.95;;;3.15;;
25535;SDS011;13431;51.352;6.412;2022-08-05T10:44:37;5.68;;;3.42;;
25535;SDS011;13431;51.352;6.412;2022-08-05T10:47:10;3.58;;;2.80;;
25535;SDS011;13431;51.352;6.412;2022-08-05T10:52:55;5.20;;;3.08;;
25535;SDS011;13431;51.352;6.412;2022-08-05T10:55:24;6.07;;;3.10;;
25535;SDS011;13431;51.352;6.412;2022-08-05T10:58:06;4.38;;;2.80;;
25535;SDS011;13431;51.352;6.412;2022-08-05T11:00:37;4.57;;;2.97;;
25535;SDS011;13431;51.352;6.412;2022-08-05T11:03:10;4.25;;;2.97;;
25535;SDS011;13431;51.352;6.412;2022-08-05T11:06:10;3.90;;;2.95;;
25535;SDS011;13431;51.352;6.412;2022-08-05T11:11:43;5.75;;;3.63;;
25535;SDS011;13431;51.352;6.412;2022-08-05T11:14:27;6.40;;;4.03;;
25535;SDS011;13431;51.352;6.412;2022-08-05T11:23:30;5.50;;;4.65;;
25535;SDS011;13431;51.352;6.412;2022-08-05T11:26:21;6.60;;;3.97;;
25535;SDS011;13431;51.352;6.412;2022-08-05T11:29:02;3.70;;;3.28;;
25535;SDS011;13431;51.352;6.412;2022-08-05T11:31:43;5.30;;;3.70;;
25535;SDS011;13431;51.352;6.412;2022-08-05T11:34:34;8.40;;;3.42;;
25535;SDS011;13431;51.352;6.412;2022-08-05T11:38:00;10.55;;;3.63;;
25535;SDS011;13431;51.352;6.412;2022-08-05T11:40:55;9.25;;;4.03;;
25535;SDS011;13431;51.352;6.412;2022-08-05T11:49:40;6.63;;;3.90;;
25535;SDS011;13431;51.352;6.412;2022-08-05T11:54:55;4.50;;;2.67;;
25535;SDS011;13431;51.352;6.412;2022-08-05T11:57:33;4.65;;;3.50;;
25535;SDS011;13431;51.352;6.412;2022-08-05T12:00:24;2.65;;;2.20;;
25535;SDS011;13431;51.352;6.412;2022-08-05T12:02:56;5.03;;;3.05;;
25535;SDS011;13431;51.352;6.412;2022-08-05T12:05:24;4.28;;;3.17;;
25535;SDS011;13431;51.352;6.412;2022-08-05T12:08:05;5.57;;;3.70;;
25535;SDS011;13431;51.352;6.412;2022-08-05T12:10:37;3.58;;;2.80;;
25535;SDS011;13431;51.352;6.412;2022-08-05T12:13:15;4.32;;;2.92;;
25535;SDS011;13431;51.352;6.412;2022-08-05T12:16:06;5.00;;;2.92;;
25535;SDS011;13431;51.352;6.412;2022-08-05T12:18:41;9.75;;;3.28;;
25535;SDS011;13431;51.352;6.412;2022-08-05T12:21:25;4.97;;;2.97;;
25535;SDS011;13431;51.352;6.412;2022-08-05T12:24:01;5.35;;;3.35;;
25535;SDS011;13431;51.352;6.412;2022-08-05T12:26:38;9.18;;;2.83;;
25535;SDS011;13431;51.352;6.412;2022-08-05T12:29:14;4.82;;;2.85;;
25535;SDS011;13431;51.352;6.412;2022-08-05T12:31:49;4.78;;;3.25;;
25535;SDS011;13431;51.352;6.412;2022-08-05T12:34:27;6.13;;;3.50;;
25535;SDS011;13431;51.352;6.412;2022-08-05T12:36:58;13.75;;;3.25;;
25535;SDS011;13431;51.352;6.412;2022-08-05T12:39:29;3.78;;;3.00;;
25535;SDS011;13431;51.352;6.412;2022-08-05T12:42:38;6.18;;;3.60;;
25535;SDS011;13431;51.352;6.412;2022-08-05T12:45:02;7.90;;;2.83;;
25535;SDS011;13431;51.352;6.412;2022-08-05T12:47:36;7.28;;;2.47;;
25535;SDS011;13431;51.352;6.412;2022-08-05T12:50:13;4.32;;;2.55;;
25535;SDS011;13431;51.352;6.412;2022-08-05T12:52:41;3.08;;;2.00;;
25535;SDS011;13431;51.352;6.412;2022-08-05T12:55:24;5.53;;;2.15;;
25535;SDS011;13431;51.352;6.412;2022-08-05T12:57:58;4.90;;;2.05;;
25535;SDS011;13431;51.352;6.412;2022-08-05T13:00:46;6.40;;;2.25;;
25535;SDS011;13431;51.352;6.412;2022-08-05T13:03:36;3.58;;;1.88;;
25535;SDS011;13431;51.352;6.412;2022-08-05T13:06:12;3.80;;;1.92;;
25535;SDS011;13431;51.352;6.412;2022-08-05T13:08:44;4.10;;;2.22;;
25535;SDS011;13431;51.352;6.412;2022-08-05T13:11:21;3.22;;;2.30;;
25535;SDS011;13431;51.352;6.412;2022-08-05T13:14:14;4.38;;;1.70;;
25535;SDS011;13431;51.352;6.412;2022-08-05T13:16:53;4.82;;;2.00;;
25535;SDS011;13431;51.352;6.412;2022-08-05T13:19:26;3.92;;;1.88;;
25535;SDS011;13431;51.352;6.412;2022-08-05T13:22:14;2.67;;;2.05;;
25535;SDS011;13431;51.352;6.412;2022-08-05T13:24:56;3.85;;;2.05;;
25535;SDS011;13431;51.352;6.412;2022-08-05T13:27:29;4.93;;;2.20;;
25535;SDS011;13431;51.352;6.412;2022-08-05T13:30:09;3.03;;;1.95;;
25535;SDS011;13431;51.352;6.412;2022-08-05T13:32:58;2.67;;;1.30;;
25535;SDS011;13431;51.352;6.412;2022-08-05T13:35:28;2.63;;;1.60;;
25535;SDS011;13431;51.352;6.412;2022-08-05T13:38:16;5.85;;;2.17;;
25535;SDS011;13431;51.352;6.412;2022-08-05T13:40:57;3.45;;;1.55;;
25535;SDS011;13431;51.352;6.412;2022-08-05T13:43:25;5.97;;;1.52;;
25535;SDS011;13431;51.352;6.412;2022-08-05T13:46:12;1.60;;;1.10;;
25535;SDS011;13431;51.352;6.412;2022-08-05T13:48:42;1.90;;;1.20;;
25535;SDS011;13431;51.352;6.412;2022-08-05T13:51:30;3.13;;;1.30;;
25535;SDS011;13431;51.352;6.412;2022-08-05T13:54:06;2.08;;;1.10;;
25535;SDS011;13431;51.352;6.412;2022-08-05T13:56:42;2.22;;;1.00;;
25535;SDS011;13431;51.352;6.412;2022-08-05T13:59:18;1.98;;;1.20;;
25535;SDS011;13431;51.352;6.412;2022-08-05T14:01:53;3.15;;;1.35;;
25535;SDS011;13431;51.352;6.412;2022-08-05T14:04:24;2.28;;;0.90;;
25535;SDS011;13431;51.352;6.412;2022-08-05T14:07:18;1.50;;;0.82;;
25535;SDS011;13431;51.352;6.412;2022-08-05T14:10:11;1.63;;;0.90;;
25535;SDS011;13431;51.352;6.412;2022-08-05T14:12:39;2.72;;;0.90;;
25535;SDS011;13431;51.352;6.412;2022-08-05T14:15:14;2.17;;;1.13;;
25535;SDS011;13431;51.352;6.412;2022-08-05T14:18:02;1.17;;;0.90;;
25535;SDS011;13431;51.352;6.412;2022-08-05T14:20:30;2.13;;;0.90;;
25535;SDS011;13431;51.352;6.412;2022-08-05T14:22:58;3.28;;;0.80;;
25535;SDS011;13431;51.352;6.412;2022-08-05T14:25:28;1.65;;;1.10;;
25535;SDS011;13431;51.352;6.412;2022-08-05T14:27:56;2.92;;;0.90;;
25535;SDS011;13431;51.352;6.412;2022-08-05T14:30:24;2.78;;;0.90;;
25535;SDS011;13431;51.352;6.412;2022-08-05T14:32:54;1.15;;;0.95;;
25535;SDS011;13431;51.352;6.412;2022-08-05T14:35:22;3.88;;;1.00;;
25535;SDS011;13431;51.352;6.412;2022-08-05T14:38:03;4.22;;;0.80;;
25535;SDS011;13431;51.352;6.412;2022-08-05T14:40:30;3.72;;;0.93;;
25535;SDS011;13431;51.352;6.412;2022-08-05T14:42:59;3.15;;;1.02;;
25535;SDS011;13431;51.352;6.412;2022-08-05T14:45:27;0.88;;;0.60;;
25535;SDS011;13431;51.352;6.412;2022-08-05T14:47:56;1.48;;;0.70;;
25535;SDS011;13431;51.352;6.412;2022-08-05T14:50:30;1.20;;;1.00;;
25535;SDS011;13431;51.352;6.412;2022-08-05T14:52:57;0.90;;;0.80;;
25535;SDS011;13431;51.352;6.412;2022-08-05T14:55:26;2.40;;;0.95;;
25535;SDS011;13431;51.352;6.412;2022-08-05T14:58:06;2.67;;;0.95;;
25535;SDS011;13431;51.352;6.412;2022-08-05T15:00:38;0.98;;;0.90;;
25535;SDS011;13431;51.352;6.412;2022-08-05T15:03:25;0.68;;;0.68;;
25535;SDS011;13431;51.352;6.412;2022-08-05T15:06:00;2.88;;;0.88;;
25535;SDS011;13431;51.352;6.412;2022-08-05T15:08:40;3.70;;;0.90;;
25535;SDS011;13431;51.352;6.412;2022-08-05T15:11:27;1.38;;;0.80;;
25535;SDS011;13431;51.352;6.412;2022-08-05T15:14:16;2.03;;;1.00;;
25535;SDS011;13431;51.352;6.412;2022-08-05T15:17:03;2.00;;;0.93;;
25535;SDS011;13431;51.352;6.412;2022-08-05T15:19:40;2.13;;;0.95;;
25535;SDS011;13431;51.352;6.412;2022-08-05T15:24:43;0.88;;;0.80;;
25535;SDS011;13431;51.352;6.412;2022-08-05T15:27:10;2.55;;;1.05;;
25535;SDS011;13431;51.352;6.412;2022-08-05T15:29:39;1.48;;;0.63;;
25535;SDS011;13431;51.352;6.412;2022-08-05T15:32:07;1.38;;;0.80;;
25535;SDS011;13431;51.352;6.412;2022-08-05T15:34:35;0.70;;;0.70;;
25535;SDS011;13431;51.352;6.412;2022-08-05T15:37:02;2.42;;;0.80;;
25535;SDS011;13431;51.352;6.412;2022-08-05T15:39:41;1.27;;;0.75;;
25535;SDS011;13431;51.352;6.412;2022-08-05T15:42:29;2.15;;;0.90;;
25535;SDS011;13431;51.352;6.412;2022-08-05T15:45:16;0.73;;;0.73;;
25535;SDS011;13431;51.352;6.412;2022-08-05T15:47:48;1.33;;;0.90;;
25535;SDS011;13431;51.352;6.412;2022-08-05T15:50:20;0.90;;;0.77;;
25535;SDS011;13431;51.352;6.412;2022-08-05T15:52:51;3.30;;;0.60;;
25535;SDS011;13431;51.352;6.412;2022-08-05T15:55:21;1.73;;;0.85;;
25535;SDS011;13431;51.352;6.412;2022-08-05T15:58:09;2.67;;;0.70;;
25535;SDS011;13431;51.352;6.412;2022-08-05T16:00:42;1.10;;;0.75;;
25535;SDS011;13431;51.352;6.412;2022-08-05T16:03:29;2.47;;;0.80;;
25535;SDS011;13431;51.352;6.412;2022-08-05T16:05:59;1.52;;;0.90;;
25535;SDS011;13431;51.352;6.412;2022-08-05T16:08:28;2.05;;;0.75;;
25535;SDS011;13431;51.352;6.412;2022-08-05T16:10:57;2.67;;;0.70;;
25535;SDS011;13431;51.352;6.412;2022-08-05T16:13:24;1.50;;;1.02;;
25535;SDS011;13431;51.352;6.412;2022-08-05T16:16:03;2.60;;;0.82;;
25535;SDS011;13431;51.352;6.412;2022-08-05T16:18:31;0.80;;;0.80;;
25535;SDS011;13431;51.352;6.412;2022-08-05T16:21:00;1.00;;;0.70;;
25535;SDS011;13431;51.352;6.412;2022-08-05T16:23:31;2.28;;;0.77;;
25535;SDS011;13431;51.352;6.412;2022-08-05T16:26:18;1.52;;;0.95;;
25535;SDS011;13431;51.352;6.412;2022-08-05T16:28:52;2.40;;;0.70;;
25535;SDS011;13431;51.352;6.412;2022-08-05T16:31:21;5.35;;;0.98;;